createdAt,value
2019-06-26T00:00:18.678Z,7.30
2019-06-26T00:02:47.229Z,7.33
2019-06-26T00:05:15.918Z,6.87
2019-06-26T00:07:44.457Z,6.60
2019-06-26T00:10:14.549Z,6.40
2019-06-26T00:12:44.646Z,6.63
2019-06-26T00:15:16.274Z,6.40
2019-06-26T00:17:47.790Z,6.83
2019-06-26T00:20:18.261Z,6.37
2019-06-26T00:22:46.748Z,6.80
2019-06-26T00:25:16.817Z,6.93
2019-06-26T00:27:48.318Z,6.87
2019-06-26T00:30:18.563Z,7.70
2019-06-26T00:32:47.130Z,6.20
2019-06-26T00:35:17.200Z,7.47
2019-06-26T00:37:45.686Z,7.43
2019-06-26T00:40:17.573Z,7.17
2019-06-26T00:42:49.021Z,6.40
2019-06-26T00:45:17.601Z,6.87
2019-06-26T00:47:46.304Z,6.70
2019-06-26T00:50:20.641Z,7.60
2019-06-26T00:52:49.207Z,5.90
2019-06-26T00:55:19.280Z,6.40
2019-06-26T00:57:47.768Z,7.23
2019-06-26T01:00:20.518Z,8.17
2019-06-26T01:02:53.631Z,8.27
2019-06-26T01:05:22.105Z,7.70
2019-06-26T01:07:53.369Z,7.87
2019-06-26T01:10:23.442Z,7.90
2019-06-26T01:12:51.939Z,8.50
2019-06-26T01:15:22.022Z,7.93
2019-06-26T01:17:52.081Z,8.13
2019-06-26T01:20:20.666Z,8.40
2019-06-26T01:22:49.247Z,8.20
2019-06-26T01:25:19.966Z,8.20
2019-06-26T01:27:50.779Z,7.70
2019-06-26T01:30:22.341Z,8.00
2019-06-26T01:32:50.912Z,7.53
2019-06-26T01:35:20.983Z,8.80
2019-06-26T01:37:49.544Z,7.40
2019-06-26T01:40:21.441Z,7.97
2019-06-26T01:42:50.050Z,8.30
2019-06-26T01:45:20.294Z,8.20
2019-06-26T01:47:48.783Z,8.27
2019-06-26T01:50:18.989Z,8.63
2019-06-26T01:52:47.552Z,8.50
2019-06-26T01:55:16.101Z,7.93
2019-06-26T01:57:44.589Z,8.83
2019-06-26T02:00:16.890Z,8.13
2019-06-26T02:02:46.955Z,8.37
2019-06-26T02:05:16.650Z,9.07
2019-06-26T02:07:45.265Z,9.17
2019-06-26T02:10:17.224Z,9.80
2019-06-26T02:12:45.742Z,9.33
2019-06-26T02:15:16.892Z,8.70
2019-06-26T02:17:47.847Z,9.00
2019-06-26T02:20:16.338Z,8.40
2019-06-26T02:22:45.179Z,8.70
2019-06-26T02:25:15.191Z,8.53
2019-06-26T02:27:43.757Z,10.60
2019-06-26T02:30:15.156Z,10.07
2019-06-26T02:32:43.710Z,8.40
2019-06-26T02:35:13.712Z,9.83
2019-06-26T02:37:42.182Z,9.57
2019-06-26T02:40:12.302Z,10.07
2019-06-26T02:42:42.395Z,9.67
2019-06-26T02:45:14.047Z,9.17
2019-06-26T02:47:42.563Z,9.33
2019-06-26T02:50:12.580Z,8.73
2019-06-26T02:52:41.196Z,9.00
2019-06-26T02:55:11.678Z,9.53
2019-06-26T02:57:40.232Z,9.50
2019-06-26T03:00:10.256Z,9.50
2019-06-26T03:02:38.736Z,10.57
2019-06-26T03:05:08.909Z,9.53
2019-06-26T03:07:37.443Z,10.73
2019-06-26T03:10:09.024Z,10.27
2019-06-26T03:12:38.907Z,9.40
2019-06-26T03:15:10.556Z,10.50
2019-06-26T03:17:54.313Z,9.83
2019-06-26T03:20:09.821Z,9.77
2019-06-26T03:22:41.237Z,9.50
2019-06-26T03:25:11.330Z,10.03
2019-06-26T03:27:39.891Z,10.03
2019-06-26T03:30:10.094Z,10.23
2019-06-26T03:32:38.683Z,11.10
2019-06-26T03:35:11.463Z,9.70
2019-06-26T03:37:39.994Z,10.23
2019-06-26T03:40:11.615Z,9.93
2019-06-26T03:42:40.137Z,10.80
2019-06-26T03:45:24.488Z,10.70
2019-06-26T03:47:41.610Z,9.60
2019-06-26T03:50:11.909Z,10.50
2019-06-26T03:52:43.598Z,10.10
2019-06-26T03:55:14.799Z,11.90
2019-06-26T03:57:43.360Z,10.20
2019-06-26T04:00:14.114Z,12.10
2019-06-26T04:02:42.690Z,11.57
2019-06-26T04:05:16.993Z,12.17
2019-06-26T04:07:45.556Z,12.60
2019-06-26T04:10:14.189Z,13.10
2019-06-26T04:12:42.740Z,13.47
2019-06-26T04:15:14.455Z,12.60
2019-06-26T04:17:43.043Z,13.30
2019-06-26T04:20:17.300Z,12.10
2019-06-26T04:22:47.656Z,13.80
2019-06-26T04:25:19.245Z,12.97
2019-06-26T04:27:50.708Z,12.63
2019-06-26T04:30:22.336Z,15.90
2019-06-26T04:32:50.820Z,15.70
2019-06-26T04:35:19.512Z,14.97
2019-06-26T04:37:48.047Z,15.73
2019-06-26T04:40:20.377Z,14.87
2019-06-26T04:42:48.361Z,15.10
2019-06-26T04:45:17.104Z,14.20
2019-06-26T04:47:47.240Z,13.67
2019-06-26T04:50:18.887Z,14.97
2019-06-26T04:52:47.360Z,17.13
2019-06-26T04:55:17.445Z,18.10
2019-06-26T04:57:51.618Z,16.73
2019-06-26T05:00:23.201Z,18.13
2019-06-26T05:02:51.755Z,17.50
2019-06-26T05:05:38.536Z,16.70
2019-06-26T05:07:53.871Z,17.27
2019-06-26T05:10:23.770Z,14.83
2019-06-26T05:12:52.333Z,16.97
2019-06-26T05:15:22.118Z,17.07
2019-06-26T05:17:50.601Z,15.77
2019-06-26T05:20:20.788Z,17.80
2019-06-26T05:22:50.461Z,17.43
2019-06-26T05:25:19.084Z,15.70
2019-06-26T05:27:47.674Z,15.40
2019-06-26T05:30:19.646Z,15.50
2019-06-26T05:32:51.210Z,15.07
2019-06-26T05:35:21.289Z,14.63
2019-06-26T05:37:49.805Z,15.47
2019-06-26T05:40:21.434Z,15.10
2019-06-26T05:42:52.758Z,13.97
2019-06-26T05:45:25.178Z,14.20
2019-06-26T05:47:53.736Z,14.80
2019-06-26T05:50:25.699Z,13.60
2019-06-26T05:52:54.275Z,15.20
2019-06-26T05:55:22.822Z,12.90
2019-06-26T05:57:51.297Z,12.50
2019-06-26T06:00:22.871Z,13.27
2019-06-26T06:02:53.853Z,11.60
2019-06-26T06:05:23.156Z,12.80
2019-06-26T06:07:51.732Z,12.93
2019-06-26T06:10:21.796Z,13.47
2019-06-26T06:12:50.401Z,13.83
2019-06-26T06:15:22.048Z,12.47
2019-06-26T06:17:51.734Z,11.20
2019-06-26T06:20:29.003Z,11.40
2019-06-26T06:22:57.565Z,12.40
2019-06-26T06:25:26.034Z,11.43
2019-06-26T06:27:56.099Z,10.87
2019-06-26T06:30:28.100Z,10.00
2019-06-26T06:32:56.631Z,10.17
2019-06-26T06:35:25.220Z,9.87
2019-06-26T06:37:53.762Z,10.97
2019-06-26T06:40:23.865Z,11.50
2019-06-26T06:42:54.004Z,10.40
2019-06-26T06:45:24.176Z,10.60
2019-06-26T06:47:55.644Z,9.77
2019-06-26T06:50:24.209Z,9.80
2019-06-26T06:52:52.747Z,9.10
2019-06-26T06:55:21.331Z,10.07
2019-06-26T06:57:49.886Z,8.67
2019-06-26T07:00:21.556Z,9.23
2019-06-26T07:02:50.112Z,9.57
2019-06-26T07:05:20.219Z,8.90
2019-06-26T07:07:48.753Z,8.80
2019-06-26T07:10:20.354Z,8.07
2019-06-26T07:12:48.883Z,7.20
2019-06-26T07:15:19.180Z,7.10
2019-06-26T07:17:47.732Z,7.00
2019-06-26T07:20:17.830Z,7.50
2019-06-26T07:22:46.402Z,7.90
2019-06-26T07:25:17.170Z,6.50
2019-06-26T07:27:45.706Z,7.27
2019-06-26T07:30:17.275Z,7.00
2019-06-26T07:32:48.331Z,7.10
2019-06-26T07:35:16.897Z,7.23
2019-06-26T07:37:45.442Z,6.90
2019-06-26T07:40:17.067Z,7.13
2019-06-26T07:42:45.694Z,7.72
2019-06-26T07:45:18.709Z,6.37
2019-06-26T07:47:47.275Z,6.83
2019-06-26T07:50:18.941Z,6.25
2019-06-26T07:52:47.481Z,6.78
2019-06-26T07:55:17.651Z,6.20
2019-06-26T07:57:48.809Z,5.85
2019-06-26T08:00:18.927Z,5.50
2019-06-26T08:02:47.479Z,5.97
2019-06-26T08:05:19.448Z,4.87
2019-06-26T08:07:48.005Z,5.20
2019-06-26T08:10:18.122Z,4.70
2019-06-26T08:12:46.656Z,5.75
2019-06-26T08:15:15.427Z,4.40
2019-06-26T08:17:59.192Z,4.83
2019-06-26T08:20:19.029Z,4.45
2019-06-26T08:22:47.598Z,3.70
2019-06-26T08:25:17.697Z,3.83
2019-06-26T08:27:46.224Z,3.55
2019-06-26T08:30:16.336Z,3.77
2019-06-26T08:32:44.890Z,4.05
2019-06-26T08:35:16.891Z,4.15
2019-06-26T08:37:46.950Z,3.87
2019-06-26T08:40:19.059Z,3.67
2019-06-26T08:42:50.566Z,3.50
2019-06-26T08:45:20.681Z,3.90
2019-06-26T08:47:49.149Z,3.20
2019-06-26T08:50:21.573Z,3.20
2019-06-26T08:52:50.157Z,3.30
2019-06-26T08:55:18.779Z,3.65
2019-06-26T08:57:47.366Z,3.25
2019-06-26T09:00:18.547Z,3.30
2019-06-26T09:02:48.603Z,3.47
2019-06-26T09:05:19.028Z,3.60
2019-06-26T09:07:49.224Z,3.70
2019-06-26T09:10:19.372Z,3.12
2019-06-26T09:12:47.857Z,3.62
2019-06-26T09:15:19.509Z,3.00
2019-06-26T09:17:48.065Z,3.35
2019-06-26T09:20:25.683Z,2.70
2019-06-26T09:22:54.242Z,3.25
2019-06-26T09:25:22.830Z,3.22
2019-06-26T09:27:51.376Z,3.50
2019-06-26T09:30:23.952Z,2.95
2019-06-26T09:32:55.250Z,3.15
2019-06-26T09:35:26.745Z,3.45
2019-06-26T09:37:55.302Z,3.10
2019-06-26T09:40:31.614Z,3.10
2019-06-26T09:42:58.627Z,2.50
2019-06-26T09:45:30.297Z,2.80
2019-06-26T09:47:58.906Z,2.92
2019-06-26T09:50:31.858Z,3.40
2019-06-26T09:53:00.445Z,3.00
2019-06-26T09:55:29.063Z,3.08
2019-06-26T09:57:57.632Z,2.87
2019-06-26T10:00:29.296Z,3.72
2019-06-26T10:02:57.862Z,2.75
2019-06-26T10:05:26.501Z,3.05
2019-06-26T10:07:55.065Z,2.80
2019-06-26T10:10:23.674Z,3.05
2019-06-26T10:12:53.754Z,3.30
2019-06-26T10:15:23.876Z,3.15
2019-06-26T10:17:55.573Z,2.90
2019-06-26T10:20:24.166Z,3.08
2019-06-26T10:22:52.709Z,3.40
2019-06-26T10:25:21.374Z,3.02
2019-06-26T10:27:50.036Z,2.85
2019-06-26T10:30:20.229Z,3.45
2019-06-26T10:32:48.751Z,2.92
2019-06-26T10:35:20.879Z,2.98
2019-06-26T10:37:49.365Z,2.98
2019-06-26T10:40:19.500Z,3.10
2019-06-26T10:42:48.027Z,3.00
2019-06-26T10:45:18.315Z,2.92
2019-06-26T10:47:46.895Z,3.25
2019-06-26T10:50:17.162Z,3.08
2019-06-26T10:52:45.715Z,3.35
2019-06-26T10:55:17.681Z,3.40
2019-06-26T10:57:46.229Z,3.00
2019-06-26T11:00:17.073Z,3.98
2019-06-26T11:02:45.684Z,2.80
2019-06-26T11:05:17.520Z,3.87
2019-06-26T11:07:46.071Z,2.90
2019-06-26T11:10:17.035Z,3.27
2019-06-26T11:12:48.842Z,3.30
2019-06-26T11:15:17.390Z,3.23
2019-06-26T11:17:48.718Z,3.40
2019-06-26T11:20:17.620Z,3.40
2019-06-26T11:22:46.145Z,3.40
2019-06-26T11:25:19.310Z,3.53
2019-06-26T11:27:47.933Z,3.97
2019-06-26T11:30:19.543Z,3.67
2019-06-26T11:32:48.091Z,4.20
2019-06-26T11:35:18.273Z,4.10
2019-06-26T11:37:49.814Z,4.23
2019-06-26T11:40:19.109Z,3.93
2019-06-26T11:42:47.664Z,4.70
2019-06-26T11:45:18.097Z,4.10
2019-06-26T11:47:49.484Z,4.20
2019-06-26T11:50:20.427Z,3.97
2019-06-26T11:52:51.836Z,4.57
2019-06-26T11:55:22.060Z,4.43
2019-06-26T11:57:50.637Z,4.13
2019-06-26T12:00:25.166Z,4.10
2019-06-26T12:02:56.258Z,4.43
2019-06-26T12:05:26.264Z,4.53
2019-06-26T12:07:54.856Z,4.27
2019-06-26T12:10:23.531Z,4.17
2019-06-26T12:12:52.099Z,4.00
2019-06-26T12:15:22.472Z,4.37
2019-06-26T12:17:52.557Z,4.43
2019-06-26T12:20:22.590Z,4.07
2019-06-26T12:22:51.115Z,4.30
2019-06-26T12:25:22.605Z,4.37
2019-06-26T12:27:51.115Z,4.17
2019-06-26T12:30:22.754Z,4.37
2019-06-26T12:33:02.342Z,4.70
2019-06-26T12:35:21.537Z,4.50
2019-06-26T12:37:50.082Z,4.53
2019-06-26T12:40:20.840Z,4.23
2019-06-26T12:42:54.504Z,5.20
2019-06-26T12:45:20.616Z,4.93
2019-06-26T12:47:51.957Z,4.90
2019-06-26T12:50:34.532Z,4.13
2019-06-26T12:52:53.804Z,5.23
2019-06-26T12:55:22.287Z,5.07
2019-06-26T12:57:53.602Z,5.53
2019-06-26T13:00:23.782Z,4.90
2019-06-26T13:02:52.322Z,4.43
2019-06-26T13:05:20.905Z,4.73
2019-06-26T13:07:49.457Z,4.93
2019-06-26T13:10:20.615Z,4.87
2019-06-26T13:12:49.217Z,4.73
2019-06-26T13:15:20.487Z,5.07
2019-06-26T13:17:48.994Z,4.80
2019-06-26T13:20:20.197Z,5.10
2019-06-26T13:22:48.695Z,4.90
2019-06-26T13:25:17.322Z,4.77
2019-06-26T13:27:45.862Z,5.07
2019-06-26T13:30:14.571Z,6.13
2019-06-26T13:32:43.113Z,4.97
2019-06-26T13:35:13.295Z,5.70
2019-06-26T13:37:41.831Z,5.10
2019-06-26T13:40:11.951Z,5.70
2019-06-26T13:42:40.570Z,6.17
2019-06-26T13:45:10.749Z,5.40
2019-06-26T13:47:39.316Z,5.70
2019-06-26T13:50:10.946Z,5.90
2019-06-26T13:52:39.498Z,5.60
2019-06-26T13:55:11.388Z,6.07
2019-06-26T13:57:39.905Z,6.00
2019-06-26T14:00:11.528Z,6.40
2019-06-26T14:02:40.132Z,6.50
2019-06-26T14:05:11.737Z,5.43
2019-06-26T14:07:41.763Z,5.90
2019-06-26T14:10:12.044Z,5.67
2019-06-26T14:12:40.611Z,5.80
2019-06-26T14:15:11.401Z,5.53
2019-06-26T14:17:39.957Z,5.90
2019-06-26T14:20:11.645Z,4.90
2019-06-26T14:22:40.160Z,6.33
2019-06-26T14:25:11.044Z,5.87
2019-06-26T14:27:42.179Z,5.70
2019-06-26T14:30:12.339Z,6.63
2019-06-26T14:32:40.845Z,5.50
2019-06-26T14:35:12.495Z,6.47
2019-06-26T14:37:46.901Z,6.00
2019-06-26T14:40:18.572Z,5.90
2019-06-26T14:42:47.087Z,5.53
2019-06-26T14:45:17.210Z,5.17
2019-06-26T14:47:48.425Z,5.73
2019-06-26T14:50:19.328Z,5.47
2019-06-26T14:52:47.860Z,5.80
2019-06-26T14:55:19.537Z,5.57
2019-06-26T14:57:48.150Z,6.17
2019-06-26T15:00:19.811Z,6.00
2019-06-26T15:02:49.900Z,6.00
2019-06-26T15:05:18.460Z,5.47
2019-06-26T15:07:49.975Z,5.43
2019-06-26T15:10:20.226Z,5.97
2019-06-26T15:12:50.346Z,5.23
2019-06-26T15:15:20.521Z,6.67
2019-06-26T15:17:49.099Z,5.70
2019-06-26T15:20:17.675Z,6.40
2019-06-26T15:22:46.304Z,6.00
2019-06-26T15:25:17.227Z,5.67
2019-06-26T15:27:48.466Z,5.77
2019-06-26T15:30:20.454Z,6.30
2019-06-26T15:32:49.003Z,6.77
2019-06-26T15:35:19.131Z,5.77
2019-06-26T15:37:47.685Z,5.90
2019-06-26T15:40:20.967Z,5.80
2019-06-26T15:42:49.525Z,6.27
2019-06-26T15:45:20.779Z,5.90
2019-06-26T15:47:51.157Z,6.17
2019-06-26T15:50:21.220Z,6.30
2019-06-26T15:52:49.783Z,6.30
2019-06-26T15:55:21.117Z,6.20
2019-06-26T15:57:52.562Z,6.10
2019-06-26T16:00:22.663Z,5.93
2019-06-26T16:02:51.280Z,6.13
2019-06-26T16:05:19.934Z,5.20
2019-06-26T16:07:48.481Z,6.20
2019-06-26T16:10:18.648Z,5.80
2019-06-26T16:12:47.239Z,5.50
2019-06-26T16:15:18.049Z,5.77
2019-06-26T16:17:50.732Z,5.97
2019-06-26T16:20:20.854Z,5.30
2019-06-26T16:22:52.194Z,5.30
2019-06-26T16:25:20.782Z,4.77
2019-06-26T16:28:04.259Z,5.20
2019-06-26T16:30:23.301Z,5.60
2019-06-26T16:32:56.676Z,5.00
2019-06-26T16:35:23.607Z,5.10
2019-06-26T16:37:53.719Z,5.20
2019-06-26T16:40:22.319Z,5.13
2019-06-26T16:42:50.900Z,5.70
2019-06-26T16:45:21.068Z,4.60
2019-06-26T16:47:49.627Z,5.50
2019-06-26T16:50:18.302Z,4.80
2019-06-26T16:52:50.380Z,4.77
2019-06-26T16:55:20.219Z,5.13
2019-06-26T16:57:51.816Z,5.13
2019-06-26T17:00:23.488Z,4.97
2019-06-26T17:02:52.068Z,5.47
2019-06-26T17:05:22.208Z,4.90
2019-06-26T17:07:53.667Z,5.30
2019-06-26T17:10:23.789Z,4.40
2019-06-26T17:12:52.442Z,4.27
2019-06-26T17:15:21.145Z,5.30
2019-06-26T17:17:49.739Z,4.63
2019-06-26T17:20:21.635Z,4.90
2019-06-26T17:23:04.974Z,4.70
2019-06-26T17:25:23.432Z,5.27
2019-06-26T17:27:52.076Z,5.07
2019-06-26T17:30:22.187Z,5.10
2019-06-26T17:32:52.295Z,4.17
2019-06-26T17:35:20.870Z,4.83
2019-06-26T17:37:49.463Z,5.57
2019-06-26T17:40:18.277Z,4.87
2019-06-26T17:42:49.769Z,3.97
2019-06-26T17:45:20.033Z,5.13
2019-06-26T17:47:48.636Z,4.73
2019-06-26T17:50:18.720Z,5.13
2019-06-26T17:52:48.883Z,4.93
2019-06-26T17:55:18.103Z,4.93
2019-06-26T17:57:48.570Z,4.53
2019-06-26T18:00:20.172Z,4.10
2019-06-26T18:02:48.761Z,4.60
2019-06-26T18:05:17.336Z,4.50
2019-06-26T18:07:45.938Z,3.47
2019-06-26T18:10:16.027Z,4.43
2019-06-26T18:12:44.675Z,3.93
2019-06-26T18:15:18.243Z,3.60
2019-06-26T18:17:49.554Z,3.90
2019-06-26T18:20:18.779Z,3.67
2019-06-26T18:23:05.430Z,3.67
2019-06-26T18:25:19.198Z,3.60
2019-06-26T18:27:49.028Z,3.40
2019-06-26T18:30:22.775Z,3.97
2019-06-26T18:32:53.729Z,3.50
2019-06-26T18:35:22.360Z,4.20
2019-06-26T18:37:56.752Z,3.80
2019-06-26T18:40:21.253Z,3.97
2019-06-26T18:42:49.866Z,4.73
2019-06-26T18:45:21.580Z,4.07
2019-06-26T18:47:50.167Z,3.70
2019-06-26T18:50:21.847Z,3.70
2019-06-26T18:52:53.192Z,4.10
2019-06-26T18:55:23.037Z,3.77
2019-06-26T18:57:54.623Z,3.93
2019-06-26T19:00:24.345Z,4.07
2019-06-26T19:02:52.991Z,4.13
2019-06-26T19:05:21.574Z,4.60
2019-06-26T19:08:05.660Z,4.50
2019-06-26T19:10:38.297Z,4.40
2019-06-26T19:13:07.086Z,4.23
2019-06-26T19:15:36.959Z,4.90
2019-06-26T19:18:05.746Z,4.80
2019-06-26T19:20:41.566Z,4.37
2019-06-26T19:23:13.061Z,4.23
2019-06-26T19:25:41.691Z,4.50
2019-06-26T19:28:10.338Z,4.70
2019-06-26T19:30:40.532Z,10.03
2019-06-26T19:33:09.244Z,8.13
2019-06-26T19:35:40.897Z,4.77
2019-06-26T19:38:09.567Z,4.73
2019-06-26T19:40:39.453Z,4.47
2019-06-26T19:43:11.004Z,4.47
2019-06-26T19:45:41.206Z,4.73
2019-06-26T19:48:09.871Z,4.90
2019-06-26T19:50:39.990Z,5.50
2019-06-26T19:53:10.126Z,4.90
2019-06-26T19:55:44.384Z,4.53
2019-06-26T19:58:10.342Z,4.53
2019-06-26T20:00:39.015Z,4.53
2019-06-26T20:03:07.603Z,5.87
2019-06-26T20:05:36.238Z,5.10
2019-06-26T20:08:05.295Z,4.43
2019-06-26T20:10:39.400Z,43.33
2019-06-26T20:13:09.706Z,10.50
2019-06-26T20:15:42.352Z,5.73
2019-06-26T20:18:13.897Z,6.17
2019-06-26T20:20:42.533Z,5.77
2019-06-26T20:23:13.932Z,5.67
2019-06-26T20:25:43.565Z,5.37
2019-06-26T20:28:13.988Z,5.10
2019-06-26T20:30:42.606Z,5.10
2019-06-26T20:33:14.203Z,5.03
2019-06-26T20:35:42.824Z,4.80
2019-06-26T20:38:11.697Z,5.17
2019-06-26T20:40:40.316Z,4.60
2019-06-26T20:43:10.752Z,4.93
2019-06-26T20:45:41.407Z,3.93
2019-06-26T20:48:10.151Z,4.30
2019-06-26T20:50:43.083Z,4.67
2019-06-26T20:53:11.686Z,4.73
2019-06-26T20:55:40.318Z,3.93
2019-06-26T20:58:08.872Z,20.00
2019-06-26T21:00:37.496Z,8.00
2019-06-26T21:03:08.934Z,3.87
2019-06-26T21:05:37.552Z,3.83
2019-06-26T21:08:06.134Z,4.30
2019-06-26T21:10:38.076Z,4.33
2019-06-26T21:13:06.628Z,4.73
2019-06-26T21:15:35.303Z,3.80
2019-06-26T21:18:03.855Z,4.17
2019-06-26T21:20:32.504Z,4.60
2019-06-26T21:23:02.660Z,4.30
2019-06-26T21:25:31.261Z,3.90
2019-06-26T21:27:59.840Z,4.30
2019-06-26T21:30:28.407Z,4.07
2019-06-26T21:32:56.958Z,3.93
2019-06-26T21:35:25.563Z,3.97
2019-06-26T21:37:54.111Z,4.47
2019-06-26T21:40:22.688Z,4.30
2019-06-26T21:42:51.279Z,4.07
2019-06-26T21:45:21.591Z,3.47
2019-06-26T21:47:50.134Z,4.10
2019-06-26T21:50:18.663Z,4.20
2019-06-26T21:52:50.300Z,3.70
2019-06-26T21:55:33.295Z,3.17
2019-06-26T21:57:49.141Z,4.20
2019-06-26T22:00:20.726Z,3.63
2019-06-26T22:02:49.263Z,3.30
2019-06-26T22:05:20.868Z,3.70
2019-06-26T22:07:50.779Z,3.40
2019-06-26T22:10:21.267Z,3.60
2019-06-26T22:12:49.827Z,3.30
2019-06-26T22:15:18.415Z,3.37
2019-06-26T22:17:46.965Z,3.53
2019-06-26T22:20:18.797Z,2.73
2019-06-26T22:22:47.269Z,3.30
2019-06-26T22:25:17.866Z,3.37
2019-06-26T22:27:46.433Z,3.50
2019-06-26T22:30:18.008Z,3.90
2019-06-26T22:32:46.566Z,3.60
2019-06-26T22:35:18.208Z,4.07
2019-06-26T22:37:49.462Z,3.53
2019-06-26T22:40:19.612Z,4.30
2019-06-26T22:42:48.204Z,4.33
2019-06-26T22:45:17.021Z,3.90
2019-06-26T22:47:45.576Z,4.20
2019-06-26T22:50:16.081Z,4.13
2019-06-26T22:52:44.623Z,4.07
2019-06-26T22:55:16.278Z,3.97
2019-06-26T22:57:44.860Z,3.90
2019-06-26T23:00:17.947Z,3.80
2019-06-26T23:02:46.502Z,3.70
2019-06-26T23:05:15.056Z,4.23
2019-06-26T23:07:43.540Z,4.20
2019-06-26T23:10:14.734Z,3.90
2019-06-26T23:12:43.214Z,3.90
2019-06-26T23:15:14.460Z,4.40
2019-06-26T23:17:42.933Z,4.90
2019-06-26T23:20:14.917Z,4.50
2019-06-26T23:22:43.391Z,4.63
2019-06-26T23:25:13.512Z,4.60
2019-06-26T23:27:41.983Z,4.80
2019-06-26T23:30:21.080Z,4.77
2019-06-26T23:32:49.627Z,5.30
2019-06-26T23:35:18.200Z,5.30
2019-06-26T23:37:46.741Z,5.90
2019-06-26T23:40:17.511Z,5.23
2019-06-26T23:42:46.070Z,5.30
2019-06-26T23:45:16.255Z,4.93
2019-06-26T23:47:44.798Z,5.60
2019-06-26T23:50:15.501Z,5.33
2019-06-26T23:52:43.990Z,5.93
2019-06-26T23:55:14.694Z,6.43
2019-06-26T23:57:58.082Z,6.97
